sensor_id;sensor_type;location;lat;lon;timestamp;temperature;humidity
7143;DHT22;3613;48.902;9.204;2023-12-04T00:00:08;-4.50;99.90
7143;DHT22;3613;48.902;9.204;2023-12-04T00:02:37;-4.30;99.90
7143;DHT22;3613;48.902;9.204;2023-12-04T00:05:15;-4.30;99.90
7143;DHT22;3613;48.902;9.204;2023-12-04T00:07:43;-4.40;99.90
7143;DHT22;3613;48.902;9.204;2023-12-04T00:10:08;-4.40;99.90
7143;DHT22;3613;48.902;9.204;2023-12-04T00:12:34;-4.30;99.90
7143;DHT22;3613;48.902;9.204;2023-12-04T00:15:00;-4.20;99.90
7143;DHT22;3613;48.902;9.204;2023-12-04T00:17:28;-4.20;99.90
7143;DHT22;3613;48.902;9.204;2023-12-04T00:19:56;-4.20;99.90
7143;DHT22;3613;48.902;9.204;2023-12-04T00:22:24;-4.30;99.90
7143;DHT22;3613;48.902;9.204;2023-12-04T00:24:50;-4.30;99.90
7143;DHT22;3613;48.902;9.204;2023-12-04T00:27:18;-4.30;99.90
7143;DHT22;3613;48.902;9.204;2023-12-04T00:29:43;-4.40;99.90
7143;DHT22;3613;48.902;9.204;2023-12-04T00:32:12;-4.40;99.90
7143;DHT22;3613;48.902;9.204;2023-12-04T00:34:40;-4.50;99.90
7143;DHT22;3613;48.902;9.204;2023-12-04T00:37:07;-4.50;99.90
7143;DHT22;3613;48.902;9.204;2023-12-04T00:39:33;-4.60;99.90
7143;DHT22;3613;48.902;9.204;2023-12-04T00:41:58;-4.60;99.90
7143;DHT22;3613;48.902;9.204;2023-12-04T00:44:24;-4.60;99.90
7143;DHT22;3613;48.902;9.204;2023-12-04T00:46:49;-4.60;99.90
7143;DHT22;3613;48.902;9.204;2023-12-04T00:49:15;-4.70;99.90
7143;DHT22;3613;48.902;9.204;2023-12-04T00:51:41;-4.70;99.90
7143;DHT22;3613;48.902;9.204;2023-12-04T00:54:06;-4.70;99.90
7143;DHT22;3613;48.902;9.204;2023-12-04T00:56:32;-4.70;99.90
7143;DHT22;3613;48.902;9.204;2023-12-04T00:59:00;-4.70;99.90
7143;DHT22;3613;48.902;9.204;2023-12-04T01:01:29;-4.70;99.90
7143;DHT22;3613;48.902;9.204;2023-12-04T01:03:54;-4.70;99.90
7143;DHT22;3613;48.902;9.204;2023-12-04T01:06:21;-4.60;99.90
7143;DHT22;3613;48.902;9.204;2023-12-04T01:08:50;-4.60;99.90
7143;DHT22;3613;48.902;9.204;2023-12-04T01:11:17;-4.60;99.90
7143;DHT22;3613;48.902;9.204;2023-12-04T01:13:44;-4.60;99.90
7143;DHT22;3613;48.902;9.204;2023-12-04T01:16:10;-4.60;99.90
7143;DHT22;3613;48.902;9.204;2023-12-04T01:18:35;-1.70;99.90
7143;DHT22;3613;48.902;9.204;2023-12-04T01:21:01;-4.60;99.90
7143;DHT22;3613;48.902;9.204;2023-12-04T01:23:27;-4.60;99.90
7143;DHT22;3613;48.902;9.204;2023-12-04T01:25:53;-4.50;99.90
7143;DHT22;3613;48.902;9.204;2023-12-04T01:28:26;-4.50;99.90
7143;DHT22;3613;48.902;9.204;2023-12-04T01:30:52;-4.40;99.90
7143;DHT22;3613;48.902;9.204;2023-12-04T01:33:17;-4.40;99.90
7143;DHT22;3613;48.902;9.204;2023-12-04T01:35:43;-4.40;99.90
7143;DHT22;3613;48.902;9.204;2023-12-04T01:38:08;-4.50;99.90
7143;DHT22;3613;48.902;9.204;2023-12-04T01:40:34;-4.40;99.90
7143;DHT22;3613;48.902;9.204;2023-12-04T01:43:00;-4.50;99.90
7143;DHT22;3613;48.902;9.204;2023-12-04T01:45:26;-4.30;99.90
7143;DHT22;3613;48.902;9.204;2023-12-04T01:47:54;-4.30;99.90
7143;DHT22;3613;48.902;9.204;2023-12-04T01:50:20;-4.30;99.90
7143;DHT22;3613;48.902;9.204;2023-12-04T01:52:46;-4.40;99.90
7143;DHT22;3613;48.902;9.204;2023-12-04T01:55:13;-4.50;99.90
7143;DHT22;3613;48.902;9.204;2023-12-04T01:57:42;-4.50;99.90
7143;DHT22;3613;48.902;9.204;2023-12-04T02:00:11;-4.50;99.90
7143;DHT22;3613;48.902;9.204;2023-12-04T02:02:39;-4.60;99.90
7143;DHT22;3613;48.902;9.204;2023-12-04T02:05:10;-4.50;99.90
7143;DHT22;3613;48.902;9.204;2023-12-04T02:07:39;-4.60;99.90
7143;DHT22;3613;48.902;9.204;2023-12-04T02:10:05;-4.70;99.90
7143;DHT22;3613;48.902;9.204;2023-12-04T02:12:32;-4.60;99.90
7143;DHT22;3613;48.902;9.204;2023-12-04T02:14:58;-4.60;99.90
7143;DHT22;3613;48.902;9.204;2023-12-04T02:17:24;-4.50;99.90
7143;DHT22;3613;48.902;9.204;2023-12-04T02:19:51;-4.50;99.90
7143;DHT22;3613;48.902;9.204;2023-12-04T02:22:18;-4.60;99.90
7143;DHT22;3613;48.902;9.204;2023-12-04T02:24:46;-4.60;99.90
7143;DHT22;3613;48.902;9.204;2023-12-04T02:27:22;-4.70;99.90
7143;DHT22;3613;48.902;9.204;2023-12-04T02:29:59;-4.70;99.90
7143;DHT22;3613;48.902;9.204;2023-12-04T02:32:31;-4.60;99.90
7143;DHT22;3613;48.902;9.204;2023-12-04T02:35:04;-4.50;99.90
7143;DHT22;3613;48.902;9.204;2023-12-04T02:37:30;-4.50;99.90
7143;DHT22;3613;48.902;9.204;2023-12-04T02:39:58;-4.50;99.90
7143;DHT22;3613;48.902;9.204;2023-12-04T02:42:26;-4.60;99.90
7143;DHT22;3613;48.902;9.204;2023-12-04T02:44:52;-4.50;99.90
7143;DHT22;3613;48.902;9.204;2023-12-04T02:47:18;-4.60;99.90
7143;DHT22;3613;48.902;9.204;2023-12-04T02:49:46;-4.90;99.90
7143;DHT22;3613;48.902;9.204;2023-12-04T02:52:12;-4.80;99.90
7143;DHT22;3613;48.902;9.204;2023-12-04T02:54:40;-4.80;99.90
7143;DHT22;3613;48.902;9.204;2023-12-04T02:57:08;-4.80;99.90
7143;DHT22;3613;48.902;9.204;2023-12-04T02:59:33;-4.90;99.90
7143;DHT22;3613;48.902;9.204;2023-12-04T03:01:59;-4.90;99.90
7143;DHT22;3613;48.902;9.204;2023-12-04T03:04:24;-4.90;99.90
7143;DHT22;3613;48.902;9.204;2023-12-04T03:06:50;-5.00;99.90
7143;DHT22;3613;48.902;9.204;2023-12-04T03:09:16;-5.00;99.90
7143;DHT22;3613;48.902;9.204;2023-12-04T03:11:43;-4.90;99.90
7143;DHT22;3613;48.902;9.204;2023-12-04T03:14:09;-4.90;99.90
7143;DHT22;3613;48.902;9.204;2023-12-04T03:16:34;-5.00;99.90
7143;DHT22;3613;48.902;9.204;2023-12-04T03:19:00;-4.90;99.90
7143;DHT22;3613;48.902;9.204;2023-12-04T03:21:25;-4.90;99.90
7143;DHT22;3613;48.902;9.204;2023-12-04T03:23:51;-4.90;99.90
7143;DHT22;3613;48.902;9.204;2023-12-04T03:26:17;-4.80;99.90
7143;DHT22;3613;48.902;9.204;2023-12-04T03:28:42;-4.80;99.90
7143;DHT22;3613;48.902;9.204;2023-12-04T03:31:08;-4.80;99.90
7143;DHT22;3613;48.902;9.204;2023-12-04T03:33:34;-4.70;99.90
7143;DHT22;3613;48.902;9.204;2023-12-04T03:35:59;-4.70;99.90
7143;DHT22;3613;48.902;9.204;2023-12-04T03:38:27;-4.70;99.90
7143;DHT22;3613;48.902;9.204;2023-12-04T03:40:55;-4.70;99.90
7143;DHT22;3613;48.902;9.204;2023-12-04T03:43:21;-4.60;99.90
7143;DHT22;3613;48.902;9.204;2023-12-04T03:45:46;-4.70;99.90
7143;DHT22;3613;48.902;9.204;2023-12-04T03:48:14;-4.70;99.90
7143;DHT22;3613;48.902;9.204;2023-12-04T03:50:40;-4.70;99.90
7143;DHT22;3613;48.902;9.204;2023-12-04T03:53:10;-4.80;99.90
7143;DHT22;3613;48.902;9.204;2023-12-04T03:55:35;-2.00;99.90
7143;DHT22;3613;48.902;9.204;2023-12-04T03:58:01;-4.80;99.90
7143;DHT22;3613;48.902;9.204;2023-12-04T04:00:27;-4.80;99.90
7143;DHT22;3613;48.902;9.204;2023-12-04T04:02:52;-4.80;99.90
7143;DHT22;3613;48.902;9.204;2023-12-04T04:05:18;-4.80;99.90
7143;DHT22;3613;48.902;9.204;2023-12-04T04:07:43;-4.70;99.90
7143;DHT22;3613;48.902;9.204;2023-12-04T04:10:09;-4.70;99.90
7143;DHT22;3613;48.902;9.204;2023-12-04T04:12:37;-4.60;99.90
7143;DHT22;3613;48.902;9.204;2023-12-04T04:15:03;-4.00;99.90
7143;DHT22;3613;48.902;9.204;2023-12-04T04:17:29;-4.60;99.90
7143;DHT22;3613;48.902;9.204;2023-12-04T04:19:55;-4.60;99.90
7143;DHT22;3613;48.902;9.204;2023-12-04T04:22:21;-4.60;99.90
7143;DHT22;3613;48.902;9.204;2023-12-04T04:24:47;-4.50;99.90
7143;DHT22;3613;48.902;9.204;2023-12-04T04:27:13;-4.50;99.90
7143;DHT22;3613;48.902;9.204;2023-12-04T04:29:38;-4.40;99.90
7143;DHT22;3613;48.902;9.204;2023-12-04T04:32:04;-4.40;99.90
7143;DHT22;3613;48.902;9.204;2023-12-04T04:34:30;-4.40;99.90
7143;DHT22;3613;48.902;9.204;2023-12-04T04:36:56;-4.40;99.90
7143;DHT22;3613;48.902;9.204;2023-12-04T04:39:24;-4.40;99.90
7143;DHT22;3613;48.902;9.204;2023-12-04T04:41:49;-4.40;99.90
7143;DHT22;3613;48.902;9.204;2023-12-04T04:44:15;-4.40;99.90
7143;DHT22;3613;48.902;9.204;2023-12-04T04:46:43;-4.40;99.90
7143;DHT22;3613;48.902;9.204;2023-12-04T04:49:09;-4.40;99.90
7143;DHT22;3613;48.902;9.204;2023-12-04T04:51:37;-4.40;99.90
7143;DHT22;3613;48.902;9.204;2023-12-04T04:54:03;-4.30;99.90
7143;DHT22;3613;48.902;9.204;2023-12-04T04:56:31;-4.20;99.90
7143;DHT22;3613;48.902;9.204;2023-12-04T04:58:57;-4.10;99.90
7143;DHT22;3613;48.902;9.204;2023-12-04T05:01:25;-4.10;99.90
7143;DHT22;3613;48.902;9.204;2023-12-04T05:03:50;-4.10;99.90
7143;DHT22;3613;48.902;9.204;2023-12-04T05:06:16;-4.10;99.90
7143;DHT22;3613;48.902;9.204;2023-12-04T05:08:44;-4.00;99.90
7143;DHT22;3613;48.902;9.204;2023-12-04T05:11:09;-4.00;99.90
7143;DHT22;3613;48.902;9.204;2023-12-04T05:13:35;-4.00;99.90
7143;DHT22;3613;48.902;9.204;2023-12-04T05:16:06;-3.90;99.90
7143;DHT22;3613;48.902;9.204;2023-12-04T05:18:34;-3.90;99.90
7143;DHT22;3613;48.902;9.204;2023-12-04T05:21:00;-3.70;99.90
7143;DHT22;3613;48.902;9.204;2023-12-04T05:23:25;-3.90;99.90
7143;DHT22;3613;48.902;9.204;2023-12-04T05:25:51;-3.90;99.90
7143;DHT22;3613;48.902;9.204;2023-12-04T05:28:19;-3.90;99.90
7143;DHT22;3613;48.902;9.204;2023-12-04T05:30:44;-3.90;99.90
7143;DHT22;3613;48.902;9.204;2023-12-04T05:33:10;-3.90;99.90
7143;DHT22;3613;48.902;9.204;2023-12-04T05:35:39;-3.90;99.90
7143;DHT22;3613;48.902;9.204;2023-12-04T05:38:07;-3.90;99.90
7143;DHT22;3613;48.902;9.204;2023-12-04T05:40:34;-3.80;99.90
7143;DHT22;3613;48.902;9.204;2023-12-04T05:43:00;-1.80;99.90
7143;DHT22;3613;48.902;9.204;2023-12-04T05:45:25;-3.70;99.90
7143;DHT22;3613;48.902;9.204;2023-12-04T05:47:53;-3.70;99.90
7143;DHT22;3613;48.902;9.204;2023-12-04T05:50:19;-3.60;99.90
7143;DHT22;3613;48.902;9.204;2023-12-04T05:52:45;-3.70;99.90
7143;DHT22;3613;48.902;9.204;2023-12-04T05:55:11;-3.70;99.90
7143;DHT22;3613;48.902;9.204;2023-12-04T05:57:39;-3.70;99.90
7143;DHT22;3613;48.902;9.204;2023-12-04T06:00:06;-3.70;99.90
7143;DHT22;3613;48.902;9.204;2023-12-04T06:02:43;-3.70;99.90
7143;DHT22;3613;48.902;9.204;2023-12-04T06:05:13;-3.70;99.90
7143;DHT22;3613;48.902;9.204;2023-12-04T06:07:39;-3.80;99.90
7143;DHT22;3613;48.902;9.204;2023-12-04T06:10:07;-3.80;99.90
7143;DHT22;3613;48.902;9.204;2023-12-04T06:12:35;-3.80;99.90
7143;DHT22;3613;48.902;9.204;2023-12-04T06:15:01;-3.80;99.90
7143;DHT22;3613;48.902;9.204;2023-12-04T06:17:31;-3.80;99.90
7143;DHT22;3613;48.902;9.204;2023-12-04T06:19:57;-3.80;99.90
7143;DHT22;3613;48.902;9.204;2023-12-04T06:22:29;-3.80;99.90
7143;DHT22;3613;48.902;9.204;2023-12-04T06:24:54;-3.80;99.90
7143;DHT22;3613;48.902;9.204;2023-12-04T06:27:20;-3.80;99.90
7143;DHT22;3613;48.902;9.204;2023-12-04T06:29:47;-3.80;99.90
7143;DHT22;3613;48.902;9.204;2023-12-04T06:32:14;-3.80;99.90
7143;DHT22;3613;48.902;9.204;2023-12-04T06:34:40;-3.70;99.90
7143;DHT22;3613;48.902;9.204;2023-12-04T06:37:13;-3.70;99.90
7143;DHT22;3613;48.902;9.204;2023-12-04T06:39:40;-3.80;99.90
7143;DHT22;3613;48.902;9.204;2023-12-04T06:42:07;-3.70;99.90
7143;DHT22;3613;48.902;9.204;2023-12-04T06:44:37;-3.80;99.90
7143;DHT22;3613;48.902;9.204;2023-12-04T06:47:08;-3.80;99.90
7143;DHT22;3613;48.902;9.204;2023-12-04T06:49:34;-3.80;99.90
7143;DHT22;3613;48.902;9.204;2023-12-04T06:52:00;-3.80;99.90
7143;DHT22;3613;48.902;9.204;2023-12-04T06:54:26;-3.80;99.90
7143;DHT22;3613;48.902;9.204;2023-12-04T06:56:52;-3.80;99.90
7143;DHT22;3613;48.902;9.204;2023-12-04T06:59:18;-3.80;99.90
7143;DHT22;3613;48.902;9.204;2023-12-04T07:01:47;-3.70;99.90
7143;DHT22;3613;48.902;9.204;2023-12-04T07:04:12;-3.70;99.90
7143;DHT22;3613;48.902;9.204;2023-12-04T07:06:39;-3.80;99.90
7143;DHT22;3613;48.902;9.204;2023-12-04T07:09:08;-3.80;99.90
7143;DHT22;3613;48.902;9.204;2023-12-04T07:11:36;-3.70;99.90
7143;DHT22;3613;48.902;9.204;2023-12-04T07:14:01;-3.70;99.90
7143;DHT22;3613;48.902;9.204;2023-12-04T07:16:27;-3.70;99.90
7143;DHT22;3613;48.902;9.204;2023-12-04T07:18:53;-3.70;99.90
7143;DHT22;3613;48.902;9.204;2023-12-04T07:21:22;-2.70;99.90
7143;DHT22;3613;48.902;9.204;2023-12-04T07:23:51;-3.60;99.90
7143;DHT22;3613;48.902;9.204;2023-12-04T07:26:19;-3.50;99.90
7143;DHT22;3613;48.902;9.204;2023-12-04T07:28:45;-3.50;99.90
7143;DHT22;3613;48.902;9.204;2023-12-04T07:31:10;-3.50;99.90
7143;DHT22;3613;48.902;9.204;2023-12-04T07:33:39;-3.40;99.90
7143;DHT22;3613;48.902;9.204;2023-12-04T07:36:05;-3.30;99.90
7143;DHT22;3613;48.902;9.204;2023-12-04T07:38:31;-3.30;99.90
7143;DHT22;3613;48.902;9.204;2023-12-04T07:40:56;-3.20;99.90
7143;DHT22;3613;48.902;9.204;2023-12-04T07:43:24;-3.10;99.90
7143;DHT22;3613;48.902;9.204;2023-12-04T07:45:52;-3.00;99.90
7143;DHT22;3613;48.902;9.204;2023-12-04T07:48:20;-2.90;99.90
7143;DHT22;3613;48.902;9.204;2023-12-04T07:50:45;-2.90;99.90
7143;DHT22;3613;48.902;9.204;2023-12-04T07:53:13;-2.80;99.90
7143;DHT22;3613;48.902;9.204;2023-12-04T07:55:39;-2.80;99.90
7143;DHT22;3613;48.902;9.204;2023-12-04T07:58:05;-2.80;99.90
7143;DHT22;3613;48.902;9.204;2023-12-04T08:00:32;-2.70;99.90
7143;DHT22;3613;48.902;9.204;2023-12-04T08:02:58;-2.70;99.90
7143;DHT22;3613;48.902;9.204;2023-12-04T08:05:23;-2.60;99.90
7143;DHT22;3613;48.902;9.204;2023-12-04T08:07:52;-2.50;99.90
7143;DHT22;3613;48.902;9.204;2023-12-04T08:10:17;-2.50;99.90
7143;DHT22;3613;48.902;9.204;2023-12-04T08:12:45;-2.40;99.90
7143;DHT22;3613;48.902;9.204;2023-12-04T08:15:11;-2.40;99.90
7143;DHT22;3613;48.902;9.204;2023-12-04T08:17:36;-2.30;99.90
7143;DHT22;3613;48.902;9.204;2023-12-04T08:20:05;-2.20;99.90
7143;DHT22;3613;48.902;9.204;2023-12-04T08:22:31;-2.10;99.90
7143;DHT22;3613;48.902;9.204;2023-12-04T08:24:57;-2.30;99.90
7143;DHT22;3613;48.902;9.204;2023-12-04T08:27:25;-2.10;99.90
7143;DHT22;3613;48.902;9.204;2023-12-04T08:29:53;-2.20;99.90
7143;DHT22;3613;48.902;9.204;2023-12-04T08:32:19;-2.20;99.90
7143;DHT22;3613;48.902;9.204;2023-12-04T08:34:46;-2.10;99.90
7143;DHT22;3613;48.902;9.204;2023-12-04T08:37:14;-2.10;99.90
7143;DHT22;3613;48.902;9.204;2023-12-04T08:39:39;-2.00;99.90
7143;DHT22;3613;48.902;9.204;2023-12-04T08:42:11;-1.90;99.90
7143;DHT22;3613;48.902;9.204;2023-12-04T08:44:36;-1.90;99.90
7143;DHT22;3613;48.902;9.204;2023-12-04T08:47:02;-1.90;99.90
7143;DHT22;3613;48.902;9.204;2023-12-04T08:49:28;-1.80;99.90
7143;DHT22;3613;48.902;9.204;2023-12-04T08:51:53;-1.90;99.90
7143;DHT22;3613;48.902;9.204;2023-12-04T08:54:19;-1.80;99.90
7143;DHT22;3613;48.902;9.204;2023-12-04T08:56:49;-1.30;99.90
7143;DHT22;3613;48.902;9.204;2023-12-04T08:59:17;-1.60;99.90
7143;DHT22;3613;48.902;9.204;2023-12-04T09:01:46;-1.50;99.90
7143;DHT22;3613;48.902;9.204;2023-12-04T09:04:11;-1.50;99.90
7143;DHT22;3613;48.902;9.204;2023-12-04T09:06:40;-1.50;99.90
7143;DHT22;3613;48.902;9.204;2023-12-04T09:09:05;-1.40;99.90
7143;DHT22;3613;48.902;9.204;2023-12-04T09:11:34;-1.40;99.90
7143;DHT22;3613;48.902;9.204;2023-12-04T09:13:59;-1.30;99.90
7143;DHT22;3613;48.902;9.204;2023-12-04T09:16:25;-1.30;99.90
7143;DHT22;3613;48.902;9.204;2023-12-04T09:18:50;-1.30;99.90
7143;DHT22;3613;48.902;9.204;2023-12-04T09:21:18;-1.30;99.90
7143;DHT22;3613;48.902;9.204;2023-12-04T09:23:44;-1.20;99.90
7143;DHT22;3613;48.902;9.204;2023-12-04T09:26:15;-1.20;99.90
7143;DHT22;3613;48.902;9.204;2023-12-04T09:28:41;-1.20;99.90
7143;DHT22;3613;48.902;9.204;2023-12-04T09:31:08;-1.30;99.90
7143;DHT22;3613;48.902;9.204;2023-12-04T09:33:34;-0.20;99.90
7143;DHT22;3613;48.902;9.204;2023-12-04T09:35:59;-1.40;99.90
7143;DHT22;3613;48.902;9.204;2023-12-04T09:38:28;-1.40;99.90
7143;DHT22;3613;48.902;9.204;2023-12-04T09:40:57;-1.30;99.90
7143;DHT22;3613;48.902;9.204;2023-12-04T09:43:24;-1.30;99.90
7143;DHT22;3613;48.902;9.204;2023-12-04T09:45:50;-1.20;99.90
7143;DHT22;3613;48.902;9.204;2023-12-04T09:48:16;-1.10;99.90
7143;DHT22;3613;48.902;9.204;2023-12-04T09:50:41;-1.20;99.90
7143;DHT22;3613;48.902;9.204;2023-12-04T09:53:10;-1.20;99.90
7143;DHT22;3613;48.902;9.204;2023-12-04T09:55:38;-1.20;99.90
7143;DHT22;3613;48.902;9.204;2023-12-04T09:58:04;-1.20;99.90
7143;DHT22;3613;48.902;9.204;2023-12-04T10:00:32;-1.00;99.90
7143;DHT22;3613;48.902;9.204;2023-12-04T10:03:00;-0.90;99.90
7143;DHT22;3613;48.902;9.204;2023-12-04T10:05:27;-0.90;99.90
7143;DHT22;3613;48.902;9.204;2023-12-04T10:07:55;-0.90;99.90
7143;DHT22;3613;48.902;9.204;2023-12-04T10:10:21;-0.90;99.90
7143;DHT22;3613;48.902;9.204;2023-12-04T10:12:49;-1.00;99.90
7143;DHT22;3613;48.902;9.204;2023-12-04T10:15:17;-1.10;99.90
7143;DHT22;3613;48.902;9.204;2023-12-04T10:17:47;-1.20;99.90
7143;DHT22;3613;48.902;9.204;2023-12-04T10:20:15;-1.10;99.90
7143;DHT22;3613;48.902;9.204;2023-12-04T10:23:00;-1.00;99.90
7143;DHT22;3613;48.902;9.204;2023-12-04T10:25:31;-0.90;99.90
7143;DHT22;3613;48.902;9.204;2023-12-04T10:28:13;-0.80;99.90
7143;DHT22;3613;48.902;9.204;2023-12-04T10:30:43;-0.60;99.90
7143;DHT22;3613;48.902;9.204;2023-12-04T10:33:12;-0.50;99.90
7143;DHT22;3613;48.902;9.204;2023-12-04T10:35:38;-0.50;99.90
7143;DHT22;3613;48.902;9.204;2023-12-04T10:38:06;-0.50;99.90
7143;DHT22;3613;48.902;9.204;2023-12-04T10:40:33;-0.50;99.90
7143;DHT22;3613;48.902;9.204;2023-12-04T10:45:41;-0.40;99.90
7143;DHT22;3613;48.902;9.204;2023-12-04T10:48:07;-0.20;99.90
7143;DHT22;3613;48.902;9.204;2023-12-04T10:50:37;-0.40;99.90
7143;DHT22;3613;48.902;9.204;2023-12-04T10:53:04;-0.20;99.90
7143;DHT22;3613;48.902;9.204;2023-12-04T10:55:33;-0.10;99.90
7143;DHT22;3613;48.902;9.204;2023-12-04T10:58:05;0.60;99.90
7143;DHT22;3613;48.902;9.204;2023-12-04T11:00:33;0.10;99.90
7143;DHT22;3613;48.902;9.204;2023-12-04T11:03:09;0.10;99.90
7143;DHT22;3613;48.902;9.204;2023-12-04T11:05:41;0.20;99.90
7143;DHT22;3613;48.902;9.204;2023-12-04T11:08:13;0.10;99.90
7143;DHT22;3613;48.902;9.204;2023-12-04T11:13:50;0.20;99.90
7143;DHT22;3613;48.902;9.204;2023-12-04T11:20:31;0.10;99.90
7143;DHT22;3613;48.902;9.204;2023-12-04T11:22:27;0.20;99.90
7143;DHT22;3613;48.902;9.204;2023-12-04T11:24:53;0.30;99.90
7143;DHT22;3613;48.902;9.204;2023-12-04T11:27:19;0.30;99.90
7143;DHT22;3613;48.902;9.204;2023-12-04T11:29:48;0.30;99.90
7143;DHT22;3613;48.902;9.204;2023-12-04T11:32:15;0.20;99.90
7143;DHT22;3613;48.902;9.204;2023-12-04T11:34:51;0.10;99.90
7143;DHT22;3613;48.902;9.204;2023-12-04T11:37:20;0.00;99.90
7143;DHT22;3613;48.902;9.204;2023-12-04T11:39:50;0.00;99.90
7143;DHT22;3613;48.902;9.204;2023-12-04T11:42:19;0.00;99.90
7143;DHT22;3613;48.902;9.204;2023-12-04T11:44:48;0.00;99.90
7143;DHT22;3613;48.902;9.204;2023-12-04T11:47:16;0.00;99.90
7143;DHT22;3613;48.902;9.204;2023-12-04T11:49:47;0.00;99.90
7143;DHT22;3613;48.902;9.204;2023-12-04T11:52:12;-0.10;99.90
7143;DHT22;3613;48.902;9.204;2023-12-04T11:54:58;-0.10;99.90
7143;DHT22;3613;48.902;9.204;2023-12-04T11:57:32;0.10;99.90
7143;DHT22;3613;48.902;9.204;2023-12-04T12:05:19;0.10;99.90
7143;DHT22;3613;48.902;9.204;2023-12-04T12:07:46;0.20;99.90
7143;DHT22;3613;48.902;9.204;2023-12-04T12:10:12;0.20;99.90
7143;DHT22;3613;48.902;9.204;2023-12-04T12:12:39;0.30;99.90
7143;DHT22;3613;48.902;9.204;2023-12-04T12:15:08;0.30;99.90
7143;DHT22;3613;48.902;9.204;2023-12-04T12:17:34;0.30;99.90
7143;DHT22;3613;48.902;9.204;2023-12-04T12:20:00;0.40;99.90
7143;DHT22;3613;48.902;9.204;2023-12-04T12:22:25;0.40;99.90
7143;DHT22;3613;48.902;9.204;2023-12-04T12:24:53;0.30;99.90
7143;DHT22;3613;48.902;9.204;2023-12-04T12:27:19;0.30;99.90
7143;DHT22;3613;48.902;9.204;2023-12-04T12:29:45;0.30;99.90
7143;DHT22;3613;48.902;9.204;2023-12-04T12:32:10;0.40;99.90
7143;DHT22;3613;48.902;9.204;2023-12-04T12:34:36;0.40;99.90
7143;DHT22;3613;48.902;9.204;2023-12-04T12:37:03;0.40;99.90
7143;DHT22;3613;48.902;9.204;2023-12-04T12:39:31;0.40;99.90
7143;DHT22;3613;48.902;9.204;2023-12-04T12:41:57;0.80;99.90
7143;DHT22;3613;48.902;9.204;2023-12-04T12:44:22;0.40;99.90
7143;DHT22;3613;48.902;9.204;2023-12-04T12:46:48;0.40;99.90
7143;DHT22;3613;48.902;9.204;2023-12-04T12:49:20;0.30;99.90
7143;DHT22;3613;48.902;9.204;2023-12-04T12:51:50;0.20;99.90
7143;DHT22;3613;48.902;9.204;2023-12-04T12:54:16;0.30;99.90
7143;DHT22;3613;48.902;9.204;2023-12-04T12:56:42;0.20;99.90
7143;DHT22;3613;48.902;9.204;2023-12-04T12:59:07;0.30;99.90
7143;DHT22;3613;48.902;9.204;2023-12-04T13:01:33;0.30;99.90
7143;DHT22;3613;48.902;9.204;2023-12-04T13:04:04;0.40;99.90
7143;DHT22;3613;48.902;9.204;2023-12-04T13:06:30;0.40;99.90
7143;DHT22;3613;48.902;9.204;2023-12-04T13:08:58;0.50;99.90
7143;DHT22;3613;48.902;9.204;2023-12-04T13:11:23;0.60;99.90
7143;DHT22;3613;48.902;9.204;2023-12-04T13:13:49;0.70;99.90
7143;DHT22;3613;48.902;9.204;2023-12-04T13:16:16;0.70;99.90
7143;DHT22;3613;48.902;9.204;2023-12-04T13:23:36;0.30;99.90
7143;DHT22;3613;48.902;9.204;2023-12-04T13:26:02;0.40;99.90
7143;DHT22;3613;48.902;9.204;2023-12-04T13:35:50;0.30;99.90
7143;DHT22;3613;48.902;9.204;2023-12-04T13:40:45;0.30;99.90
7143;DHT22;3613;48.902;9.204;2023-12-04T13:46:12;0.50;99.90
7143;DHT22;3613;48.902;9.204;2023-12-04T13:48:37;0.40;99.90
7143;DHT22;3613;48.902;9.204;2023-12-04T13:51:10;0.40;99.90
7143;DHT22;3613;48.902;9.204;2023-12-04T13:53:39;0.40;99.90
7143;DHT22;3613;48.902;9.204;2023-12-04T13:56:15;0.30;99.90
7143;DHT22;3613;48.902;9.204;2023-12-04T13:59:06;0.30;99.90
7143;DHT22;3613;48.902;9.204;2023-12-04T14:01:33;0.20;99.90
7143;DHT22;3613;48.902;9.204;2023-12-04T14:06:28;0.20;99.90
7143;DHT22;3613;48.902;9.204;2023-12-04T14:13:49;0.10;99.90
7143;DHT22;3613;48.902;9.204;2023-12-04T14:16:17;0.10;99.90
7143;DHT22;3613;48.902;9.204;2023-12-04T14:18:45;0.20;99.90
7143;DHT22;3613;48.902;9.204;2023-12-04T14:23:39;0.20;99.90
7143;DHT22;3613;48.902;9.204;2023-12-04T14:26:05;0.20;99.90
7143;DHT22;3613;48.902;9.204;2023-12-04T14:28:36;0.20;99.90
7143;DHT22;3613;48.902;9.204;2023-12-04T14:33:28;0.20;99.90
7143;DHT22;3613;48.902;9.204;2023-12-04T14:38:19;0.30;99.90
7143;DHT22;3613;48.902;9.204;2023-12-04T14:43:11;0.30;99.90
7143;DHT22;3613;48.902;9.204;2023-12-04T14:45:37;0.30;99.90
7143;DHT22;3613;48.902;9.204;2023-12-04T14:50:35;0.30;99.90
7143;DHT22;3613;48.902;9.204;2023-12-04T14:53:07;0.40;99.90
7143;DHT22;3613;48.902;9.204;2023-12-04T14:58:34;0.30;99.90
7143;DHT22;3613;48.902;9.204;2023-12-04T15:03:46;0.10;99.90
7143;DHT22;3613;48.902;9.204;2023-12-04T15:11:52;0.10;99.90
7143;DHT22;3613;48.902;9.204;2023-12-04T15:17:23;0.10;99.90
7143;DHT22;3613;48.902;9.204;2023-12-04T15:20:09;0.20;99.90
7143;DHT22;3613;48.902;9.204;2023-12-04T15:22:35;0.20;99.90
7143;DHT22;3613;48.902;9.204;2023-12-04T15:25:03;0.20;99.90
7143;DHT22;3613;48.902;9.204;2023-12-04T15:27:34;0.10;99.90
7143;DHT22;3613;48.902;9.204;2023-12-04T15:29:59;0.10;99.90
7143;DHT22;3613;48.902;9.204;2023-12-04T15:32:25;0.10;99.90
7143;DHT22;3613;48.902;9.204;2023-12-04T15:34:53;0.10;99.90
7143;DHT22;3613;48.902;9.204;2023-12-04T15:37:19;0.20;99.90
7143;DHT22;3613;48.902;9.204;2023-12-04T15:39:45;0.20;99.90
7143;DHT22;3613;48.902;9.204;2023-12-04T15:54:25;0.20;99.90
7143;DHT22;3613;48.902;9.204;2023-12-04T15:56:51;0.30;99.90
7143;DHT22;3613;48.902;9.204;2023-12-04T15:59:19;0.30;99.90
7143;DHT22;3613;48.902;9.204;2023-12-04T16:01:47;0.30;99.90
7143;DHT22;3613;48.902;9.204;2023-12-04T16:06:41;0.30;99.90
7143;DHT22;3613;48.902;9.204;2023-12-04T16:16:31;0.40;99.90
7143;DHT22;3613;48.902;9.204;2023-12-04T16:18:59;0.30;99.90
7143;DHT22;3613;48.902;9.204;2023-12-04T16:21:25;0.30;99.90
7143;DHT22;3613;48.902;9.204;2023-12-04T16:23:53;0.30;99.90
7143;DHT22;3613;48.902;9.204;2023-12-04T16:26:23;0.40;99.90
7143;DHT22;3613;48.902;9.204;2023-12-04T16:28:51;0.40;99.90
7143;DHT22;3613;48.902;9.204;2023-12-04T16:31:21;0.50;99.90
7143;DHT22;3613;48.902;9.204;2023-12-04T16:33:50;0.60;99.90
7143;DHT22;3613;48.902;9.204;2023-12-04T16:36:20;0.60;99.90
7143;DHT22;3613;48.902;9.204;2023-12-04T16:38:48;0.60;99.90
7143;DHT22;3613;48.902;9.204;2023-12-04T16:43:43;0.60;99.90
7143;DHT22;3613;48.902;9.204;2023-12-04T16:46:14;0.60;99.90
7143;DHT22;3613;48.902;9.204;2023-12-04T16:48:45;0.60;99.90
7143;DHT22;3613;48.902;9.204;2023-12-04T16:51:13;0.70;99.90
7143;DHT22;3613;48.902;9.204;2023-12-04T16:53:39;0.70;99.90
7143;DHT22;3613;48.902;9.204;2023-12-04T16:56:11;0.70;99.90
7143;DHT22;3613;48.902;9.204;2023-12-04T16:58:39;0.70;99.90
7143;DHT22;3613;48.902;9.204;2023-12-04T17:01:07;0.70;99.90
7143;DHT22;3613;48.902;9.204;2023-12-04T17:06:02;0.70;99.90
7143;DHT22;3613;48.902;9.204;2023-12-04T17:13:22;0.70;99.90
7143;DHT22;3613;48.902;9.204;2023-12-04T17:15:52;0.70;99.90
7143;DHT22;3613;48.902;9.204;2023-12-04T17:18:22;0.60;99.90
7143;DHT22;3613;48.902;9.204;2023-12-04T17:25:41;0.70;99.90
7143;DHT22;3613;48.902;9.204;2023-12-04T17:35:29;0.70;99.90
7143;DHT22;3613;48.902;9.204;2023-12-04T17:40:23;0.70;99.90
7143;DHT22;3613;48.902;9.204;2023-12-04T17:55:08;0.60;99.90
7143;DHT22;3613;48.902;9.204;2023-12-04T17:57:37;0.60;99.90
7143;DHT22;3613;48.902;9.204;2023-12-04T18:00:04;0.50;99.90
7143;DHT22;3613;48.902;9.204;2023-12-04T18:02:42;0.50;99.90
7143;DHT22;3613;48.902;9.204;2023-12-04T18:05:11;0.50;99.90
7143;DHT22;3613;48.902;9.204;2023-12-04T18:10:07;0.30;99.90
7143;DHT22;3613;48.902;9.204;2023-12-04T18:12:32;0.30;99.90
7143;DHT22;3613;48.902;9.204;2023-12-04T18:17:24;0.30;99.90